sensor_id;sensor_type;location;lat;lon;timestamp;P1;durP1;ratioP1;P2;durP2;ratioP2
60060;SDS011;45933;51.336;12.612;2023-02-15T00:01:46;38.57;;;23.37;;
60060;SDS011;45933;51.336;12.612;2023-02-15T00:04:13;39.33;;;23.40;;
60060;SDS011;45933;51.336;12.612;2023-02-15T00:06:39;42.93;;;24.33;;
60060;SDS011;45933;51.336;12.612;2023-02-15T00:09:05;42.20;;;24.73;;
60060;SDS011;45933;51.336;12.612;2023-02-15T00:11:30;42.50;;;24.57;;
60060;SDS011;45933;51.336;12.612;2023-02-15T00:14:06;40.23;;;23.30;;
60060;SDS011;45933;51.336;12.612;2023-02-15T00:16:33;40.43;;;23.77;;
60060;SDS011;45933;51.336;12.612;2023-02-15T00:18:58;39.77;;;24.10;;
60060;SDS011;45933;51.336;12.612;2023-02-15T00:21:27;35.73;;;21.90;;
60060;SDS011;45933;51.336;12.612;2023-02-15T00:23:54;39.77;;;23.83;;
60060;SDS011;45933;51.336;12.612;2023-02-15T00:26:23;39.10;;;22.63;;
60060;SDS011;45933;51.336;12.612;2023-02-15T00:28:49;41.27;;;22.70;;
60060;SDS011;45933;51.336;12.612;2023-02-15T00:31:15;37.73;;;22.97;;
60060;SDS011;45933;51.336;12.612;2023-02-15T00:33:43;37.20;;;22.10;;
60060;SDS011;45933;51.336;12.612;2023-02-15T00:36:08;38.23;;;22.87;;
60060;SDS011;45933;51.336;12.612;2023-02-15T00:38:38;38.27;;;21.70;;
60060;SDS011;45933;51.336;12.612;2023-02-15T00:41:04;39.83;;;21.53;;
60060;SDS011;45933;51.336;12.612;2023-02-15T00:43:34;34.73;;;21.87;;
60060;SDS011;45933;51.336;12.612;2023-02-15T00:46:00;37.80;;;22.37;;
60060;SDS011;45933;51.336;12.612;2023-02-15T00:48:29;35.80;;;22.10;;
60060;SDS011;45933;51.336;12.612;2023-02-15T00:50:55;36.47;;;20.97;;
60060;SDS011;45933;51.336;12.612;2023-02-15T00:53:22;35.37;;;21.70;;
60060;SDS011;45933;51.336;12.612;2023-02-15T00:55:48;36.40;;;21.47;;
60060;SDS011;45933;51.336;12.612;2023-02-15T00:58:14;39.57;;;21.43;;
60060;SDS011;45933;51.336;12.612;2023-02-15T01:00:40;32.13;;;20.53;;
60060;SDS011;45933;51.336;12.612;2023-02-15T01:03:08;32.73;;;20.07;;
60060;SDS011;45933;51.336;12.612;2023-02-15T01:05:33;32.93;;;19.50;;
60060;SDS011;45933;51.336;12.612;2023-02-15T01:07:59;33.37;;;19.17;;
60060;SDS011;45933;51.336;12.612;2023-02-15T01:10:25;30.13;;;19.10;;
60060;SDS011;45933;51.336;12.612;2023-02-15T01:12:51;32.83;;;20.10;;
60060;SDS011;45933;51.336;12.612;2023-02-15T01:15:17;30.33;;;18.53;;
60060;SDS011;45933;51.336;12.612;2023-02-15T01:17:43;34.77;;;20.00;;
60060;SDS011;45933;51.336;12.612;2023-02-15T01:20:14;30.00;;;18.33;;
60060;SDS011;45933;51.336;12.612;2023-02-15T01:22:40;32.13;;;19.10;;
60060;SDS011;45933;51.336;12.612;2023-02-15T01:25:05;28.57;;;17.80;;
60060;SDS011;45933;51.336;12.612;2023-02-15T01:27:30;28.40;;;18.23;;
60060;SDS011;45933;51.336;12.612;2023-02-15T01:29:56;27.20;;;17.23;;
60060;SDS011;45933;51.336;12.612;2023-02-15T01:32:21;28.73;;;18.20;;
60060;SDS011;45933;51.336;12.612;2023-02-15T01:34:47;30.17;;;18.37;;
60060;SDS011;45933;51.336;12.612;2023-02-15T01:37:12;29.60;;;18.17;;
60060;SDS011;45933;51.336;12.612;2023-02-15T01:39:37;29.23;;;17.70;;
60060;SDS011;45933;51.336;12.612;2023-02-15T01:42:03;27.57;;;17.57;;
60060;SDS011;45933;51.336;12.612;2023-02-15T01:47:16;25.03;;;16.80;;
60060;SDS011;45933;51.336;12.612;2023-02-15T01:49:46;23.70;;;16.47;;
60060;SDS011;45933;51.336;12.612;2023-02-15T01:52:13;25.57;;;16.83;;
60060;SDS011;45933;51.336;12.612;2023-02-15T01:54:40;27.40;;;16.70;;
60060;SDS011;45933;51.336;12.612;2023-02-15T01:57:13;26.97;;;16.40;;
60060;SDS011;45933;51.336;12.612;2023-02-15T01:59:43;26.40;;;16.33;;
60060;SDS011;45933;51.336;12.612;2023-02-15T02:02:13;25.27;;;16.07;;
60060;SDS011;45933;51.336;12.612;2023-02-15T02:04:44;24.73;;;15.67;;
60060;SDS011;45933;51.336;12.612;2023-02-15T02:07:13;25.43;;;16.30;;
60060;SDS011;45933;51.336;12.612;2023-02-15T02:09:42;24.70;;;16.30;;
60060;SDS011;45933;51.336;12.612;2023-02-15T02:12:08;25.40;;;16.90;;
60060;SDS011;45933;51.336;12.612;2023-02-15T02:14:34;24.90;;;15.77;;
60060;SDS011;45933;51.336;12.612;2023-02-15T02:25:41;26.87;;;16.27;;
60060;SDS011;45933;51.336;12.612;2023-02-15T02:31:19;23.87;;;15.67;;
60060;SDS011;45933;51.336;12.612;2023-02-15T02:34:13;24.30;;;15.67;;
60060;SDS011;45933;51.336;12.612;2023-02-15T02:36:49;22.37;;;14.60;;
60060;SDS011;45933;51.336;12.612;2023-02-15T02:42:09;23.50;;;14.00;;
60060;SDS011;45933;51.336;12.612;2023-02-15T02:44:47;23.07;;;15.23;;
60060;SDS011;45933;51.336;12.612;2023-02-15T02:50:21;21.07;;;13.73;;
60060;SDS011;45933;51.336;12.612;2023-02-15T02:52:48;21.43;;;14.07;;
60060;SDS011;45933;51.336;12.612;2023-02-15T02:55:21;24.73;;;15.30;;
60060;SDS011;45933;51.336;12.612;2023-02-15T02:58:01;23.23;;;14.40;;
60060;SDS011;45933;51.336;12.612;2023-02-15T03:00:32;22.93;;;14.13;;
60060;SDS011;45933;51.336;12.612;2023-02-15T03:03:03;24.13;;;14.93;;
60060;SDS011;45933;51.336;12.612;2023-02-15T03:05:33;22.53;;;14.03;;
60060;SDS011;45933;51.336;12.612;2023-02-15T03:08:02;21.80;;;14.63;;
60060;SDS011;45933;51.336;12.612;2023-02-15T03:10:31;21.23;;;13.73;;
60060;SDS011;45933;51.336;12.612;2023-02-15T03:12:58;19.73;;;13.80;;
60060;SDS011;45933;51.336;12.612;2023-02-15T03:15:25;22.93;;;14.57;;
60060;SDS011;45933;51.336;12.612;2023-02-15T03:18:16;20.40;;;13.17;;
60060;SDS011;45933;51.336;12.612;2023-02-15T03:20:45;20.83;;;13.30;;
60060;SDS011;45933;51.336;12.612;2023-02-15T03:23:13;23.43;;;13.83;;
60060;SDS011;45933;51.336;12.612;2023-02-15T03:25:47;24.23;;;14.30;;
60060;SDS011;45933;51.336;12.612;2023-02-15T03:28:34;21.73;;;13.53;;
60060;SDS011;45933;51.336;12.612;2023-02-15T03:31:04;20.87;;;13.83;;
60060;SDS011;45933;51.336;12.612;2023-02-15T03:33:30;22.03;;;14.20;;
60060;SDS011;45933;51.336;12.612;2023-02-15T03:39:17;20.03;;;13.30;;
60060;SDS011;45933;51.336;12.612;2023-02-15T03:41:49;21.40;;;12.83;;
60060;SDS011;45933;51.336;12.612;2023-02-15T03:44:22;18.60;;;12.63;;
60060;SDS011;45933;51.336;12.612;2023-02-15T03:52:03;21.00;;;13.40;;
60060;SDS011;45933;51.336;12.612;2023-02-15T03:54:31;22.93;;;13.80;;
60060;SDS011;45933;51.336;12.612;2023-02-15T04:00:04;19.03;;;12.80;;
60060;SDS011;45933;51.336;12.612;2023-02-15T04:03:05;20.70;;;13.90;;
60060;SDS011;45933;51.336;12.612;2023-02-15T04:05:35;19.80;;;12.90;;
60060;SDS011;45933;51.336;12.612;2023-02-15T04:08:01;22.97;;;13.13;;
60060;SDS011;45933;51.336;12.612;2023-02-15T04:10:27;22.30;;;13.57;;
60060;SDS011;45933;51.336;12.612;2023-02-15T04:13:10;18.73;;;12.50;;
60060;SDS011;45933;51.336;12.612;2023-02-15T04:15:36;21.43;;;13.67;;
60060;SDS011;45933;51.336;12.612;2023-02-15T04:18:20;21.13;;;12.77;;
60060;SDS011;45933;51.336;12.612;2023-02-15T04:20:46;21.27;;;12.90;;
60060;SDS011;45933;51.336;12.612;2023-02-15T04:23:30;18.17;;;12.87;;
60060;SDS011;45933;51.336;12.612;2023-02-15T04:26:15;21.37;;;12.90;;
60060;SDS011;45933;51.336;12.612;2023-02-15T04:28:41;21.53;;;14.10;;
60060;SDS011;45933;51.336;12.612;2023-02-15T04:31:06;18.87;;;12.33;;
60060;SDS011;45933;51.336;12.612;2023-02-15T04:33:31;20.67;;;14.47;;
60060;SDS011;45933;51.336;12.612;2023-02-15T04:35:57;20.77;;;13.83;;
60060;SDS011;45933;51.336;12.612;2023-02-15T04:38:22;20.77;;;13.07;;
60060;SDS011;45933;51.336;12.612;2023-02-15T04:40:51;20.67;;;13.50;;
60060;SDS011;45933;51.336;12.612;2023-02-15T04:43:18;21.70;;;14.03;;
60060;SDS011;45933;51.336;12.612;2023-02-15T04:45:47;22.87;;;14.07;;
60060;SDS011;45933;51.336;12.612;2023-02-15T04:48:15;19.90;;;13.50;;
60060;SDS011;45933;51.336;12.612;2023-02-15T04:50:40;21.70;;;13.93;;
60060;SDS011;45933;51.336;12.612;2023-02-15T04:53:06;21.27;;;14.40;;
60060;SDS011;45933;51.336;12.612;2023-02-15T04:55:31;24.03;;;15.77;;
60060;SDS011;45933;51.336;12.612;2023-02-15T04:57:56;30.00;;;18.03;;
60060;SDS011;45933;51.336;12.612;2023-02-15T05:00:21;28.20;;;17.97;;
60060;SDS011;45933;51.336;12.612;2023-02-15T05:02:47;26.37;;;16.53;;
60060;SDS011;45933;51.336;12.612;2023-02-15T05:05:12;26.97;;;15.73;;
60060;SDS011;45933;51.336;12.612;2023-02-15T05:07:40;22.20;;;13.60;;
60060;SDS011;45933;51.336;12.612;2023-02-15T05:10:05;19.50;;;13.23;;
60060;SDS011;45933;51.336;12.612;2023-02-15T05:12:31;23.70;;;14.33;;
60060;SDS011;45933;51.336;12.612;2023-02-15T05:14:56;21.97;;;13.33;;
60060;SDS011;45933;51.336;12.612;2023-02-15T05:17:21;20.43;;;12.77;;
60060;SDS011;45933;51.336;12.612;2023-02-15T05:19:47;19.70;;;12.50;;
60060;SDS011;45933;51.336;12.612;2023-02-15T05:22:12;21.47;;;14.20;;
60060;SDS011;45933;51.336;12.612;2023-02-15T05:24:37;19.03;;;12.73;;
60060;SDS011;45933;51.336;12.612;2023-02-15T05:27:21;19.13;;;13.70;;
60060;SDS011;45933;51.336;12.612;2023-02-15T05:30:05;18.33;;;12.07;;
60060;SDS011;45933;51.336;12.612;2023-02-15T05:32:36;19.77;;;12.97;;
60060;SDS011;45933;51.336;12.612;2023-02-15T05:35:01;21.83;;;14.00;;
60060;SDS011;45933;51.336;12.612;2023-02-15T05:37:26;21.23;;;15.00;;
60060;SDS011;45933;51.336;12.612;2023-02-15T05:39:52;20.57;;;13.37;;
60060;SDS011;45933;51.336;12.612;2023-02-15T05:42:17;20.83;;;13.63;;
60060;SDS011;45933;51.336;12.612;2023-02-15T05:44:42;21.87;;;13.60;;
60060;SDS011;45933;51.336;12.612;2023-02-15T05:47:08;19.30;;;13.00;;
60060;SDS011;45933;51.336;12.612;2023-02-15T05:49:33;20.47;;;13.53;;
60060;SDS011;45933;51.336;12.612;2023-02-15T05:51:59;19.73;;;12.73;;
60060;SDS011;45933;51.336;12.612;2023-02-15T05:54:24;20.80;;;13.63;;
60060;SDS011;45933;51.336;12.612;2023-02-15T05:56:49;18.07;;;11.73;;
60060;SDS011;45933;51.336;12.612;2023-02-15T05:59:14;19.83;;;12.20;;
60060;SDS011;45933;51.336;12.612;2023-02-15T06:01:40;20.57;;;13.13;;
60060;SDS011;45933;51.336;12.612;2023-02-15T06:04:05;20.20;;;12.80;;
60060;SDS011;45933;51.336;12.612;2023-02-15T06:06:30;23.47;;;15.33;;
60060;SDS011;45933;51.336;12.612;2023-02-15T06:08:56;27.93;;;18.13;;
60060;SDS011;45933;51.336;12.612;2023-02-15T06:11:21;28.43;;;18.87;;
60060;SDS011;45933;51.336;12.612;2023-02-15T06:13:46;26.73;;;17.50;;
60060;SDS011;45933;51.336;12.612;2023-02-15T06:16:11;25.83;;;15.20;;
60060;SDS011;45933;51.336;12.612;2023-02-15T06:18:37;21.13;;;13.33;;
60060;SDS011;45933;51.336;12.612;2023-02-15T06:21:02;19.20;;;12.97;;
60060;SDS011;45933;51.336;12.612;2023-02-15T06:23:27;18.33;;;11.93;;
60060;SDS011;45933;51.336;12.612;2023-02-15T06:25:53;19.20;;;12.53;;
60060;SDS011;45933;51.336;12.612;2023-02-15T06:28:18;16.50;;;10.83;;
60060;SDS011;45933;51.336;12.612;2023-02-15T06:30:44;17.40;;;11.10;;
60060;SDS011;45933;51.336;12.612;2023-02-15T06:33:09;15.60;;;10.17;;
60060;SDS011;45933;51.336;12.612;2023-02-15T06:35:34;17.83;;;10.40;;
60060;SDS011;45933;51.336;12.612;2023-02-15T06:37:59;16.70;;;10.97;;
60060;SDS011;45933;51.336;12.612;2023-02-15T06:40:25;17.77;;;11.23;;
60060;SDS011;45933;51.336;12.612;2023-02-15T06:42:50;15.40;;;10.37;;
60060;SDS011;45933;51.336;12.612;2023-02-15T06:45:15;15.07;;;10.17;;
60060;SDS011;45933;51.336;12.612;2023-02-15T06:47:41;15.40;;;10.23;;
60060;SDS011;45933;51.336;12.612;2023-02-15T06:50:07;14.37;;;10.30;;
60060;SDS011;45933;51.336;12.612;2023-02-15T06:52:33;17.60;;;10.73;;
60060;SDS011;45933;51.336;12.612;2023-02-15T06:54:58;16.37;;;10.50;;
60060;SDS011;45933;51.336;12.612;2023-02-15T06:57:24;16.03;;;10.47;;
60060;SDS011;45933;51.336;12.612;2023-02-15T06:59:49;16.07;;;10.57;;
60060;SDS011;45933;51.336;12.612;2023-02-15T07:02:14;15.93;;;10.80;;
60060;SDS011;45933;51.336;12.612;2023-02-15T07:04:40;16.83;;;11.23;;
60060;SDS011;45933;51.336;12.612;2023-02-15T07:07:07;18.40;;;11.17;;
60060;SDS011;45933;51.336;12.612;2023-02-15T07:09:33;27.10;;;14.40;;
60060;SDS011;45933;51.336;12.612;2023-02-15T07:11:59;27.53;;;13.63;;
60060;SDS011;45933;51.336;12.612;2023-02-15T07:14:43;29.30;;;14.67;;
60060;SDS011;45933;51.336;12.612;2023-02-15T07:17:08;66.83;;;25.60;;
60060;SDS011;45933;51.336;12.612;2023-02-15T07:19:33;55.33;;;22.50;;
60060;SDS011;45933;51.336;12.612;2023-02-15T07:21:59;53.23;;;22.83;;
60060;SDS011;45933;51.336;12.612;2023-02-15T07:24:25;55.97;;;23.40;;
60060;SDS011;45933;51.336;12.612;2023-02-15T07:26:50;54.40;;;21.73;;
60060;SDS011;45933;51.336;12.612;2023-02-15T07:29:15;56.83;;;23.07;;
60060;SDS011;45933;51.336;12.612;2023-02-15T07:31:41;30.27;;;16.73;;
60060;SDS011;45933;51.336;12.612;2023-02-15T07:34:10;36.13;;;18.97;;
60060;SDS011;45933;51.336;12.612;2023-02-15T07:36:35;25.30;;;14.13;;
60060;SDS011;45933;51.336;12.612;2023-02-15T07:39:01;17.77;;;11.90;;
60060;SDS011;45933;51.336;12.612;2023-02-15T07:41:26;13.73;;;9.47;;
60060;SDS011;45933;51.336;12.612;2023-02-15T07:43:51;15.37;;;10.27;;
60060;SDS011;45933;51.336;12.612;2023-02-15T07:46:16;15.67;;;9.90;;
60060;SDS011;45933;51.336;12.612;2023-02-15T07:48:43;16.40;;;10.47;;
60060;SDS011;45933;51.336;12.612;2023-02-15T07:51:09;13.93;;;9.67;;
60060;SDS011;45933;51.336;12.612;2023-02-15T07:53:36;14.23;;;8.67;;
60060;SDS011;45933;51.336;12.612;2023-02-15T07:56:03;14.00;;;9.40;;
60060;SDS011;45933;51.336;12.612;2023-02-15T07:58:31;18.73;;;9.93;;
60060;SDS011;45933;51.336;12.612;2023-02-15T08:01:15;29.63;;;14.00;;
60060;SDS011;45933;51.336;12.612;2023-02-15T08:03:42;38.40;;;18.33;;
60060;SDS011;45933;51.336;12.612;2023-02-15T08:06:07;24.30;;;12.67;;
60060;SDS011;45933;51.336;12.612;2023-02-15T08:08:33;14.43;;;9.67;;
60060;SDS011;45933;51.336;12.612;2023-02-15T08:11:04;15.87;;;9.60;;
60060;SDS011;45933;51.336;12.612;2023-02-15T08:13:51;11.93;;;8.83;;
60060;SDS011;45933;51.336;12.612;2023-02-15T08:21:43;11.77;;;8.63;;
60060;SDS011;45933;51.336;12.612;2023-02-15T08:24:11;11.87;;;8.00;;
60060;SDS011;45933;51.336;12.612;2023-02-15T08:26:37;11.83;;;8.10;;
60060;SDS011;45933;51.336;12.612;2023-02-15T08:29:04;11.47;;;7.57;;
60060;SDS011;45933;51.336;12.612;2023-02-15T08:31:30;11.20;;;7.80;;
60060;SDS011;45933;51.336;12.612;2023-02-15T08:33:55;9.83;;;7.43;;
60060;SDS011;45933;51.336;12.612;2023-02-15T08:36:23;11.07;;;7.00;;
60060;SDS011;45933;51.336;12.612;2023-02-15T08:38:50;9.60;;;6.43;;
60060;SDS011;45933;51.336;12.612;2023-02-15T08:41:17;8.27;;;6.30;;
60060;SDS011;45933;51.336;12.612;2023-02-15T08:43:48;11.00;;;7.43;;
60060;SDS011;45933;51.336;12.612;2023-02-15T08:46:19;7.68;;;6.18;;
60060;SDS011;45933;51.336;12.612;2023-02-15T08:48:45;8.63;;;6.40;;
60060;SDS011;45933;51.336;12.612;2023-02-15T08:51:12;9.63;;;6.95;;
60060;SDS011;45933;51.336;12.612;2023-02-15T08:53:44;6.60;;;5.75;;
60060;SDS011;45933;51.336;12.612;2023-02-15T08:56:11;8.80;;;5.88;;
60060;SDS011;45933;51.336;12.612;2023-02-15T08:58:40;7.65;;;6.03;;
60060;SDS011;45933;51.336;12.612;2023-02-15T09:01:09;6.63;;;5.53;;
60060;SDS011;45933;51.336;12.612;2023-02-15T09:03:49;7.68;;;5.80;;
60060;SDS011;45933;51.336;12.612;2023-02-15T09:06:26;6.07;;;5.47;;
60060;SDS011;45933;51.336;12.612;2023-02-15T09:08:52;9.07;;;6.20;;
60060;SDS011;45933;51.336;12.612;2023-02-15T09:11:22;7.05;;;5.82;;
60060;SDS011;45933;51.336;12.612;2023-02-15T09:14:00;10.13;;;5.80;;
60060;SDS011;45933;51.336;12.612;2023-02-15T09:16:28;5.82;;;5.20;;
60060;SDS011;45933;51.336;12.612;2023-02-15T09:18:55;6.32;;;5.65;;
60060;SDS011;45933;51.336;12.612;2023-02-15T09:21:32;5.50;;;4.63;;
60060;SDS011;45933;51.336;12.612;2023-02-15T09:24:04;5.88;;;4.93;;
60060;SDS011;45933;51.336;12.612;2023-02-15T09:26:31;5.85;;;5.20;;
60060;SDS011;45933;51.336;12.612;2023-02-15T09:29:02;16.05;;;11.60;;
60060;SDS011;45933;51.336;12.612;2023-02-15T09:31:30;6.32;;;5.38;;
60060;SDS011;45933;51.336;12.612;2023-02-15T09:33:57;5.78;;;5.20;;
60060;SDS011;45933;51.336;12.612;2023-02-15T09:36:26;4.97;;;4.57;;
60060;SDS011;45933;51.336;12.612;2023-02-15T09:39:04;5.60;;;5.05;;
60060;SDS011;45933;51.336;12.612;2023-02-15T09:42:04;6.50;;;5.05;;
60060;SDS011;45933;51.336;12.612;2023-02-15T09:49:45;7.10;;;6.05;;
60060;SDS011;45933;51.336;12.612;2023-02-15T09:52:33;8.57;;;5.75;;
60060;SDS011;45933;51.336;12.612;2023-02-15T10:01:13;5.95;;;5.35;;
60060;SDS011;45933;51.336;12.612;2023-02-15T10:04:13;6.13;;;4.88;;
60060;SDS011;45933;51.336;12.612;2023-02-15T10:12:27;5.43;;;4.93;;
60060;SDS011;45933;51.336;12.612;2023-02-15T10:20:50;5.20;;;4.65;;
60060;SDS011;45933;51.336;12.612;2023-02-15T10:26:41;12.85;;;5.35;;
60060;SDS011;45933;51.336;12.612;2023-02-15T10:29:12;6.00;;;4.95;;
60060;SDS011;45933;51.336;12.612;2023-02-15T10:37:23;5.35;;;4.70;;
60060;SDS011;45933;51.336;12.612;2023-02-15T10:40:17;5.55;;;5.03;;
60060;SDS011;45933;51.336;12.612;2023-02-15T10:43:00;5.80;;;4.68;;
60060;SDS011;45933;51.336;12.612;2023-02-15T10:48:22;5.03;;;4.30;;
60060;SDS011;45933;51.336;12.612;2023-02-15T10:51:08;5.40;;;4.28;;
60060;SDS011;45933;51.336;12.612;2023-02-15T10:54:04;4.97;;;4.47;;
60060;SDS011;45933;51.336;12.612;2023-02-15T10:57:13;6.10;;;4.20;;
60060;SDS011;45933;51.336;12.612;2023-02-15T10:59:46;9.70;;;6.15;;
60060;SDS011;45933;51.336;12.612;2023-02-15T11:02:45;4.93;;;4.43;;
60060;SDS011;45933;51.336;12.612;2023-02-15T11:05:25;4.40;;;4.03;;
60060;SDS011;45933;51.336;12.612;2023-02-15T11:07:55;5.80;;;5.20;;
60060;SDS011;45933;51.336;12.612;2023-02-15T11:13:11;4.63;;;4.22;;
60060;SDS011;45933;51.336;12.612;2023-02-15T11:15:46;5.15;;;4.28;;
60060;SDS011;45933;51.336;12.612;2023-02-15T11:20:52;4.70;;;4.30;;
60060;SDS011;45933;51.336;12.612;2023-02-15T11:23:21;4.20;;;3.80;;
60060;SDS011;45933;51.336;12.612;2023-02-15T11:25:53;5.18;;;4.20;;
60060;SDS011;45933;51.336;12.612;2023-02-15T11:28:24;5.50;;;3.88;;
60060;SDS011;45933;51.336;12.612;2023-02-15T11:30:56;4.22;;;3.83;;
60060;SDS011;45933;51.336;12.612;2023-02-15T11:33:27;6.07;;;4.05;;
60060;SDS011;45933;51.336;12.612;2023-02-15T11:39:02;4.13;;;3.45;;
60060;SDS011;45933;51.336;12.612;2023-02-15T11:41:34;3.95;;;3.63;;
60060;SDS011;45933;51.336;12.612;2023-02-15T11:44:10;3.80;;;3.50;;
60060;SDS011;45933;51.336;12.612;2023-02-15T11:46:41;5.13;;;3.58;;
60060;SDS011;45933;51.336;12.612;2023-02-15T11:49:10;3.90;;;3.50;;
60060;SDS011;45933;51.336;12.612;2023-02-15T11:51:47;7.97;;;5.78;;
60060;SDS011;45933;51.336;12.612;2023-02-15T11:54:15;7.68;;;4.70;;
60060;SDS011;45933;51.336;12.612;2023-02-15T11:56:42;8.30;;;5.72;;
60060;SDS011;45933;51.336;12.612;2023-02-15T11:59:11;10.00;;;6.80;;
60060;SDS011;45933;51.336;12.612;2023-02-15T12:04:25;6.28;;;3.70;;
60060;SDS011;45933;51.336;12.612;2023-02-15T12:07:57;7.00;;;3.95;;
60060;SDS011;45933;51.336;12.612;2023-02-15T12:10:17;6.15;;;3.85;;
60060;SDS011;45933;51.336;12.612;2023-02-15T12:12:47;6.57;;;4.00;;
60060;SDS011;45933;51.336;12.612;2023-02-15T12:15:13;5.43;;;4.45;;
60060;SDS011;45933;51.336;12.612;2023-02-15T12:17:39;10.95;;;6.75;;
60060;SDS011;45933;51.336;12.612;2023-02-15T12:22:37;5.22;;;3.70;;
60060;SDS011;45933;51.336;12.612;2023-02-15T12:25:16;4.20;;;3.53;;
60060;SDS011;45933;51.336;12.612;2023-02-15T12:27:55;6.93;;;5.18;;
60060;SDS011;45933;51.336;12.612;2023-02-15T12:30:31;9.05;;;4.80;;
60060;SDS011;45933;51.336;12.612;2023-02-15T12:35:32;18.48;;;15.27;;
60060;SDS011;45933;51.336;12.612;2023-02-15T12:38:03;7.40;;;6.70;;
60060;SDS011;45933;51.336;12.612;2023-02-15T12:40:56;5.50;;;4.32;;
60060;SDS011;45933;51.336;12.612;2023-02-15T12:43:32;5.22;;;4.50;;
60060;SDS011;45933;51.336;12.612;2023-02-15T12:51:54;6.70;;;4.55;;
60060;SDS011;45933;51.336;12.612;2023-02-15T12:54:42;8.43;;;4.60;;
60060;SDS011;45933;51.336;12.612;2023-02-15T12:57:29;6.32;;;4.38;;
60060;SDS011;45933;51.336;12.612;2023-02-15T13:00:02;5.40;;;4.05;;
60060;SDS011;45933;51.336;12.612;2023-02-15T13:02:52;6.20;;;4.65;;
60060;SDS011;45933;51.336;12.612;2023-02-15T13:08:12;4.68;;;4.28;;
60060;SDS011;45933;51.336;12.612;2023-02-15T13:10:51;5.35;;;4.25;;
60060;SDS011;45933;51.336;12.612;2023-02-15T13:13:29;4.70;;;4.22;;
60060;SDS011;45933;51.336;12.612;2023-02-15T13:16:10;6.18;;;4.55;;
60060;SDS011;45933;51.336;12.612;2023-02-15T13:18:42;11.82;;;4.57;;
60060;SDS011;45933;51.336;12.612;2023-02-15T13:21:11;4.30;;;3.88;;
60060;SDS011;45933;51.336;12.612;2023-02-15T13:23:37;4.25;;;3.85;;
60060;SDS011;45933;51.336;12.612;2023-02-15T13:26:05;4.25;;;3.85;;
60060;SDS011;45933;51.336;12.612;2023-02-15T13:28:39;5.15;;;4.35;;
60060;SDS011;45933;51.336;12.612;2023-02-15T13:31:11;15.05;;;13.50;;
60060;SDS011;45933;51.336;12.612;2023-02-15T13:33:39;7.32;;;6.63;;
60060;SDS011;45933;51.336;12.612;2023-02-15T13:36:25;8.95;;;7.97;;
60060;SDS011;45933;51.336;12.612;2023-02-15T13:39:11;8.75;;;5.68;;
60060;SDS011;45933;51.336;12.612;2023-02-15T13:41:51;4.70;;;3.97;;
60060;SDS011;45933;51.336;12.612;2023-02-15T13:44:29;5.60;;;4.38;;
60060;SDS011;45933;51.336;12.612;2023-02-15T13:47:25;4.53;;;4.13;;
60060;SDS011;45933;51.336;12.612;2023-02-15T13:52:35;4.60;;;4.07;;
60060;SDS011;45933;51.336;12.612;2023-02-15T13:57:59;8.40;;;5.57;;
60060;SDS011;45933;51.336;12.612;2023-02-15T14:03:15;5.30;;;4.28;;
60060;SDS011;45933;51.336;12.612;2023-02-15T14:06:20;5.50;;;4.70;;
60060;SDS011;45933;51.336;12.612;2023-02-15T14:09:02;5.95;;;4.43;;
60060;SDS011;45933;51.336;12.612;2023-02-15T14:14:41;6.15;;;4.00;;
60060;SDS011;45933;51.336;12.612;2023-02-15T14:25:46;4.10;;;3.80;;
60060;SDS011;45933;51.336;12.612;2023-02-15T14:28:17;6.20;;;4.07;;
60060;SDS011;45933;51.336;12.612;2023-02-15T14:30:53;4.32;;;3.67;;
60060;SDS011;45933;51.336;12.612;2023-02-15T14:33:38;10.70;;;7.30;;
60060;SDS011;45933;51.336;12.612;2023-02-15T14:36:06;4.78;;;3.97;;
60060;SDS011;45933;51.336;12.612;2023-02-15T14:44:15;4.07;;;3.20;;
60060;SDS011;45933;51.336;12.612;2023-02-15T14:47:16;4.45;;;3.00;;
60060;SDS011;45933;51.336;12.612;2023-02-15T14:49:43;4.40;;;3.20;;
60060;SDS011;45933;51.336;12.612;2023-02-15T14:52:09;3.75;;;2.83;;
60060;SDS011;45933;51.336;12.612;2023-02-15T14:59:27;4.25;;;3.50;;
60060;SDS011;45933;51.336;12.612;2023-02-15T15:02:10;5.03;;;3.05;;
60060;SDS011;45933;51.336;12.612;2023-02-15T15:07:42;4.45;;;3.45;;
60060;SDS011;45933;51.336;12.612;2023-02-15T15:12:58;3.92;;;3.03;;
60060;SDS011;45933;51.336;12.612;2023-02-15T15:15:55;4.32;;;3.35;;
60060;SDS011;45933;51.336;12.612;2023-02-15T15:21:44;6.80;;;5.65;;
60060;SDS011;45933;51.336;12.612;2023-02-15T15:32:40;17.60;;;7.40;;
60060;SDS011;45933;51.336;12.612;2023-02-15T15:49:41;9.38;;;6.03;;
60060;SDS011;45933;51.336;12.612;2023-02-15T15:52:20;15.63;;;9.73;;
60060;SDS011;45933;51.336;12.612;2023-02-15T15:54:48;5.63;;;4.38;;
60060;SDS011;45933;51.336;12.612;2023-02-15T15:59:57;9.60;;;7.28;;
60060;SDS011;45933;51.336;12.612;2023-02-15T16:02:26;15.23;;;11.48;;
60060;SDS011;45933;51.336;12.612;2023-02-15T16:04:51;14.40;;;9.20;;
60060;SDS011;45933;51.336;12.612;2023-02-15T16:09:58;6.55;;;4.60;;
60060;SDS011;45933;51.336;12.612;2023-02-15T16:12:30;9.82;;;4.55;;
60060;SDS011;45933;51.336;12.612;2023-02-15T16:14:58;6.88;;;3.63;;
60060;SDS011;45933;51.336;12.612;2023-02-15T16:17:29;5.80;;;3.83;;
60060;SDS011;45933;51.336;12.612;2023-02-15T16:20:00;5.68;;;3.45;;
60060;SDS011;45933;51.336;12.612;2023-02-15T16:22:30;7.30;;;4.05;;
60060;SDS011;45933;51.336;12.612;2023-02-15T16:32:48;6.88;;;4.20;;
60060;SDS011;45933;51.336;12.612;2023-02-15T16:35:18;7.32;;;4.63;;
60060;SDS011;45933;51.336;12.612;2023-02-15T16:37:44;8.60;;;6.28;;
60060;SDS011;45933;51.336;12.612;2023-02-15T16:42:47;9.30;;;6.20;;
60060;SDS011;45933;51.336;12.612;2023-02-15T16:45:15;11.73;;;7.00;;
60060;SDS011;45933;51.336;12.612;2023-02-15T16:47:44;14.55;;;7.00;;
60060;SDS011;45933;51.336;12.612;2023-02-15T16:50:17;12.20;;;7.00;;
60060;SDS011;45933;51.336;12.612;2023-02-15T16:52:44;14.90;;;7.70;;
60060;SDS011;45933;51.336;12.612;2023-02-15T16:55:17;12.53;;;6.57;;
60060;SDS011;45933;51.336;12.612;2023-02-15T16:57:48;10.70;;;5.63;;
60060;SDS011;45933;51.336;12.612;2023-02-15T17:00:19;8.03;;;5.33;;
60060;SDS011;45933;51.336;12.612;2023-02-15T17:03:00;9.97;;;5.47;;
60060;SDS011;45933;51.336;12.612;2023-02-15T17:05:32;7.40;;;4.40;;
60060;SDS011;45933;51.336;12.612;2023-02-15T17:08:16;5.90;;;3.87;;
60060;SDS011;45933;51.336;12.612;2023-02-15T17:13:24;4.13;;;3.03;;
60060;SDS011;45933;51.336;12.612;2023-02-15T17:18:25;6.40;;;3.93;;
60060;SDS011;45933;51.336;12.612;2023-02-15T17:20:57;6.90;;;3.20;;
60060;SDS011;45933;51.336;12.612;2023-02-15T17:23:26;6.70;;;3.60;;
60060;SDS011;45933;51.336;12.612;2023-02-15T17:25:55;5.80;;;3.50;;
60060;SDS011;45933;51.336;12.612;2023-02-15T17:28:22;6.20;;;3.50;;
60060;SDS011;45933;51.336;12.612;2023-02-15T17:30:51;5.03;;;3.60;;
60060;SDS011;45933;51.336;12.612;2023-02-15T17:33:39;5.57;;;3.60;;
60060;SDS011;45933;51.336;12.612;2023-02-15T17:38:40;5.67;;;3.23;;
60060;SDS011;45933;51.336;12.612;2023-02-15T17:41:24;6.07;;;4.00;;
60060;SDS011;45933;51.336;12.612;2023-02-15T17:43:50;7.60;;;4.03;;
60060;SDS011;45933;51.336;12.612;2023-02-15T17:46:15;7.67;;;4.83;;